sensor_id;sensor_type;location;lat;lon;timestamp;pressure;altitude;pressure_sealevel;temperature;humidity
19761;BME280;10039;42.632;23.408;2023-04-03T00:02:23;94395.16;;;7.86;64.17
19761;BME280;10039;42.632;23.408;2023-04-03T00:04:51;94414.66;;;7.99;64.48
19761;BME280;10039;42.632;23.408;2023-04-03T00:07:17;94345.69;;;7.53;64.43
19761;BME280;10039;42.632;23.408;2023-04-03T00:09:43;94417.28;;;7.79;65.16
19761;BME280;10039;42.632;23.408;2023-04-03T00:12:10;94376.69;;;7.60;64.85
19761;BME280;10039;42.632;23.408;2023-04-03T00:14:36;94363.19;;;7.51;65.28
19761;BME280;10039;42.632;23.408;2023-04-03T00:17:03;94330.53;;;7.31;64.83
19761;BME280;10039;42.632;23.408;2023-04-03T00:19:30;94356.44;;;7.46;65.46
19761;BME280;10039;42.632;23.408;2023-04-03T00:22:00;94369.38;;;7.44;65.36
19761;BME280;10039;42.632;23.408;2023-04-03T00:24:28;94357.44;;;7.33;65.85
19761;BME280;10039;42.632;23.408;2023-04-03T00:26:57;94375.41;;;7.45;65.80
19761;BME280;10039;42.632;23.408;2023-04-03T00:29:23;94338.31;;;7.18;65.68
19761;BME280;10039;42.632;23.408;2023-04-03T00:31:53;94340.50;;;7.23;65.29
19761;BME280;10039;42.632;23.408;2023-04-03T00:34:20;94362.88;;;7.22;65.89
19761;BME280;10039;42.632;23.408;2023-04-03T00:36:48;94353.91;;;7.16;66.05
19761;BME280;10039;42.632;23.408;2023-04-03T00:39:14;94371.66;;;7.19;66.40
19761;BME280;10039;42.632;23.408;2023-04-03T00:41:42;94361.63;;;7.07;66.25
19761;BME280;10039;42.632;23.408;2023-04-03T00:47:11;94396.13;;;7.30;66.78
19761;BME280;10039;42.632;23.408;2023-04-03T00:49:40;94347.94;;;6.86;66.90
19761;BME280;10039;42.632;23.408;2023-04-03T00:52:11;94355.56;;;7.07;66.61
19761;BME280;10039;42.632;23.408;2023-04-03T00:54:40;94369.34;;;6.98;66.89
19761;BME280;10039;42.632;23.408;2023-04-03T00:57:09;94343.38;;;6.86;66.53
19761;BME280;10039;42.632;23.408;2023-04-03T00:59:39;94336.16;;;6.87;66.65
19761;BME280;10039;42.632;23.408;2023-04-03T01:02:08;94395.06;;;7.24;66.68
19761;BME280;10039;42.632;23.408;2023-04-03T01:04:39;94336.63;;;6.82;66.92
19761;BME280;10039;42.632;23.408;2023-04-03T01:07:20;94377.56;;;7.04;66.84
19761;BME280;10039;42.632;23.408;2023-04-03T01:09:51;94353.22;;;6.86;66.71
19761;BME280;10039;42.632;23.408;2023-04-03T01:12:22;94338.28;;;6.72;66.79
19761;BME280;10039;42.632;23.408;2023-04-03T01:14:58;94342.69;;;6.82;66.78
19761;BME280;10039;42.632;23.408;2023-04-03T01:17:34;94339.19;;;6.89;66.50
19761;BME280;10039;42.632;23.408;2023-04-03T01:23:12;94393.28;;;7.18;67.00
19761;BME280;10039;42.632;23.408;2023-04-03T01:25:49;94369.44;;;6.91;67.01
19761;BME280;10039;42.632;23.408;2023-04-03T01:28:27;94335.72;;;6.65;67.55
19761;BME280;10039;42.632;23.408;2023-04-03T01:31:03;94396.91;;;7.04;67.61
19761;BME280;10039;42.632;23.408;2023-04-03T01:33:35;94395.25;;;7.14;67.15
19761;BME280;10039;42.632;23.408;2023-04-03T01:36:03;94362.16;;;6.72;67.87
19761;BME280;10039;42.632;23.408;2023-04-03T01:38:30;94344.56;;;6.82;67.15
19761;BME280;10039;42.632;23.408;2023-04-03T01:40:57;94362.97;;;6.92;67.24
19761;BME280;10039;42.632;23.408;2023-04-03T01:43:23;94355.81;;;6.89;67.11
19761;BME280;10039;42.632;23.408;2023-04-03T01:45:51;94374.63;;;6.98;66.71
19761;BME280;10039;42.632;23.408;2023-04-03T01:48:20;94383.66;;;7.04;66.88
19761;BME280;10039;42.632;23.408;2023-04-03T01:50:47;94365.06;;;6.81;67.26
19761;BME280;10039;42.632;23.408;2023-04-03T01:53:13;94388.50;;;6.83;67.52
19761;BME280;10039;42.632;23.408;2023-04-03T01:55:41;94359.25;;;6.63;67.85
19761;BME280;10039;42.632;23.408;2023-04-03T01:58:07;94370.59;;;6.64;67.35
19761;BME280;10039;42.632;23.408;2023-04-03T02:00:33;94390.06;;;6.80;66.97
19761;BME280;10039;42.632;23.408;2023-04-03T02:02:59;94405.59;;;7.05;66.93
19761;BME280;10039;42.632;23.408;2023-04-03T02:05:26;94387.09;;;7.01;66.91
19761;BME280;10039;42.632;23.408;2023-04-03T02:07:52;94350.59;;;6.86;66.41
19761;BME280;10039;42.632;23.408;2023-04-03T02:10:18;94395.94;;;7.18;66.00
19761;BME280;10039;42.632;23.408;2023-04-03T02:12:44;94394.09;;;7.15;65.62
19761;BME280;10039;42.632;23.408;2023-04-03T02:15:10;94387.41;;;6.80;66.82
19761;BME280;10039;42.632;23.408;2023-04-03T02:17:36;94382.38;;;6.60;67.39
19761;BME280;10039;42.632;23.408;2023-04-03T02:20:03;94370.06;;;6.46;67.48
19761;BME280;10039;42.632;23.408;2023-04-03T02:22:30;94353.59;;;6.62;67.32
19761;BME280;10039;42.632;23.408;2023-04-03T02:24:55;94363.84;;;6.86;66.54
19761;BME280;10039;42.632;23.408;2023-04-03T02:27:21;94411.31;;;7.30;66.01
19761;BME280;10039;42.632;23.408;2023-04-03T02:29:47;94356.66;;;7.09;65.78
19761;BME280;10039;42.632;23.408;2023-04-03T02:32:13;94366.13;;;7.10;65.42
19761;BME280;10039;42.632;23.408;2023-04-03T02:34:39;94338.88;;;6.83;65.94
19761;BME280;10039;42.632;23.408;2023-04-03T02:37:05;94337.50;;;6.75;66.09
19761;BME280;10039;42.632;23.408;2023-04-03T02:39:32;94368.72;;;6.87;66.58
19761;BME280;10039;42.632;23.408;2023-04-03T02:41:58;94364.38;;;6.74;67.14
19761;BME280;10039;42.632;23.408;2023-04-03T02:44:24;94349.19;;;6.52;67.55
19761;BME280;10039;42.632;23.408;2023-04-03T02:46:50;94341.19;;;6.55;66.87
19761;BME280;10039;42.632;23.408;2023-04-03T02:49:16;94329.19;;;6.47;67.27
19761;BME280;10039;42.632;23.408;2023-04-03T02:51:42;94367.00;;;6.77;67.20
19761;BME280;10039;42.632;23.408;2023-04-03T02:54:08;94353.22;;;6.60;67.54
19761;BME280;10039;42.632;23.408;2023-04-03T02:56:34;94332.72;;;6.63;67.35
19761;BME280;10039;42.632;23.408;2023-04-03T02:59:00;94330.03;;;6.41;67.86
19761;BME280;10039;42.632;23.408;2023-04-03T03:01:27;94355.88;;;6.60;68.33
19761;BME280;10039;42.632;23.408;2023-04-03T03:03:58;94322.81;;;6.15;68.94
19761;BME280;10039;42.632;23.408;2023-04-03T03:06:24;94331.00;;;6.24;69.09
19761;BME280;10039;42.632;23.408;2023-04-03T03:08:51;94353.41;;;6.19;69.78
19761;BME280;10039;42.632;23.408;2023-04-03T03:11:18;94330.41;;;6.13;69.82
19761;BME280;10039;42.632;23.408;2023-04-03T03:13:44;94314.69;;;5.99;69.33
19761;BME280;10039;42.632;23.408;2023-04-03T03:16:10;94319.09;;;6.09;70.02
19761;BME280;10039;42.632;23.408;2023-04-03T03:18:39;94307.72;;;5.82;70.14
19761;BME280;10039;42.632;23.408;2023-04-03T03:21:05;94326.78;;;6.00;70.22
19761;BME280;10039;42.632;23.408;2023-04-03T03:23:32;94312.16;;;5.88;70.33
19761;BME280;10039;42.632;23.408;2023-04-03T03:26:02;94326.06;;;5.96;70.39
19761;BME280;10039;42.632;23.408;2023-04-03T03:28:29;94321.19;;;5.91;70.34
19761;BME280;10039;42.632;23.408;2023-04-03T03:30:58;94312.47;;;5.94;69.73
19761;BME280;10039;42.632;23.408;2023-04-03T03:33:26;94324.34;;;6.12;70.12
19761;BME280;10039;42.632;23.408;2023-04-03T03:35:55;94351.53;;;6.16;70.17
19761;BME280;10039;42.632;23.408;2023-04-03T03:38:21;94361.03;;;6.14;70.76
19761;BME280;10039;42.632;23.408;2023-04-03T03:40:48;94342.84;;;6.16;70.12
19761;BME280;10039;42.632;23.408;2023-04-03T03:43:15;94321.44;;;6.03;69.98
19761;BME280;10039;42.632;23.408;2023-04-03T03:45:41;94304.78;;;6.03;70.10
19761;BME280;10039;42.632;23.408;2023-04-03T03:48:07;94344.09;;;6.08;69.03
19761;BME280;10039;42.632;23.408;2023-04-03T03:50:34;94308.88;;;5.77;69.46
19761;BME280;10039;42.632;23.408;2023-04-03T03:53:00;94374.16;;;6.24;69.04
19761;BME280;10039;42.632;23.408;2023-04-03T03:55:26;94326.84;;;5.93;69.26
19761;BME280;10039;42.632;23.408;2023-04-03T03:57:53;94332.41;;;6.05;69.06
19761;BME280;10039;42.632;23.408;2023-04-03T04:00:19;94318.13;;;5.96;68.80
19761;BME280;10039;42.632;23.408;2023-04-03T04:02:45;94331.28;;;6.03;68.72
19761;BME280;10039;42.632;23.408;2023-04-03T04:05:12;94310.66;;;6.17;68.26
19761;BME280;10039;42.632;23.408;2023-04-03T04:07:38;94324.53;;;6.28;67.91
19761;BME280;10039;42.632;23.408;2023-04-03T04:10:04;94332.03;;;6.60;67.83
19761;BME280;10039;42.632;23.408;2023-04-03T04:12:30;94335.22;;;6.74;67.28
19761;BME280;10039;42.632;23.408;2023-04-03T04:14:56;94328.22;;;6.61;66.80
19761;BME280;10039;42.632;23.408;2023-04-03T04:17:22;94331.22;;;6.63;66.95
19761;BME280;10039;42.632;23.408;2023-04-03T04:19:48;94323.63;;;6.38;67.62
19761;BME280;10039;42.632;23.408;2023-04-03T04:22:14;94330.84;;;6.38;67.88
19761;BME280;10039;42.632;23.408;2023-04-03T04:24:40;94372.22;;;6.55;68.27
19761;BME280;10039;42.632;23.408;2023-04-03T04:27:06;94355.09;;;6.63;68.34
19761;BME280;10039;42.632;23.408;2023-04-03T04:29:32;94363.84;;;6.33;69.12
19761;BME280;10039;42.632;23.408;2023-04-03T04:32:04;94378.16;;;6.36;69.47
19761;BME280;10039;42.632;23.408;2023-04-03T04:34:30;94334.22;;;6.08;69.92
19761;BME280;10039;42.632;23.408;2023-04-03T04:36:56;94347.44;;;6.12;69.82
19761;BME280;10039;42.632;23.408;2023-04-03T04:39:24;94350.81;;;6.16;70.36
19761;BME280;10039;42.632;23.408;2023-04-03T04:41:50;94382.59;;;6.46;70.07
19761;BME280;10039;42.632;23.408;2023-04-03T04:44:17;94353.63;;;6.32;69.70
19761;BME280;10039;42.632;23.408;2023-04-03T04:46:42;94365.72;;;6.33;70.00
19761;BME280;10039;42.632;23.408;2023-04-03T04:49:08;94379.22;;;6.42;69.94
19761;BME280;10039;42.632;23.408;2023-04-03T04:51:34;94383.91;;;6.31;70.34
19761;BME280;10039;42.632;23.408;2023-04-03T04:54:01;94406.34;;;6.53;69.93
19761;BME280;10039;42.632;23.408;2023-04-03T04:56:26;94374.28;;;6.44;69.23
19761;BME280;10039;42.632;23.408;2023-04-03T04:58:52;94423.22;;;6.65;69.41
19761;BME280;10039;42.632;23.408;2023-04-03T05:01:18;94380.91;;;6.29;69.62
19761;BME280;10039;42.632;23.408;2023-04-03T05:03:44;94401.06;;;6.53;68.96
19761;BME280;10039;42.632;23.408;2023-04-03T05:06:10;94409.69;;;6.57;68.81
19761;BME280;10039;42.632;23.408;2023-04-03T05:08:36;94430.19;;;6.82;68.48
19761;BME280;10039;42.632;23.408;2023-04-03T05:11:03;94400.94;;;6.60;68.74
19761;BME280;10039;42.632;23.408;2023-04-03T05:13:29;94442.94;;;6.91;69.08
19761;BME280;10039;42.632;23.408;2023-04-03T05:15:54;94407.66;;;6.67;69.18
19761;BME280;10039;42.632;23.408;2023-04-03T05:18:20;94403.16;;;6.64;69.51
19761;BME280;10039;42.632;23.408;2023-04-03T05:20:48;94390.34;;;6.60;69.46
19761;BME280;10039;42.632;23.408;2023-04-03T05:23:15;94391.34;;;6.95;68.61
19761;BME280;10039;42.632;23.408;2023-04-03T05:25:40;94391.16;;;7.09;67.37
19761;BME280;10039;42.632;23.408;2023-04-03T05:28:06;94417.34;;;7.30;67.62
19761;BME280;10039;42.632;23.408;2023-04-03T05:30:32;94398.16;;;6.96;68.25
19761;BME280;10039;42.632;23.408;2023-04-03T05:32:58;94388.44;;;6.86;68.76
19761;BME280;10039;42.632;23.408;2023-04-03T05:35:25;94414.94;;;7.16;68.60
19761;BME280;10039;42.632;23.408;2023-04-03T05:37:51;94371.19;;;7.01;68.39
19761;BME280;10039;42.632;23.408;2023-04-03T05:40:17;94359.94;;;6.94;67.85
19761;BME280;10039;42.632;23.408;2023-04-03T05:42:44;94407.59;;;7.24;68.85
19761;BME280;10039;42.632;23.408;2023-04-03T05:45:10;94409.09;;;7.25;68.03
19761;BME280;10039;42.632;23.408;2023-04-03T05:47:36;94422.38;;;7.48;68.24
19761;BME280;10039;42.632;23.408;2023-04-03T05:50:03;94394.97;;;7.31;68.07
19761;BME280;10039;42.632;23.408;2023-04-03T05:52:31;94413.34;;;7.45;68.56
19761;BME280;10039;42.632;23.408;2023-04-03T05:54:58;94398.84;;;7.50;68.01
19761;BME280;10039;42.632;23.408;2023-04-03T05:57:24;94421.00;;;7.63;67.69
19761;BME280;10039;42.632;23.408;2023-04-03T05:59:50;94426.69;;;7.84;67.25
19761;BME280;10039;42.632;23.408;2023-04-03T06:02:18;94386.09;;;7.83;66.78
19761;BME280;10039;42.632;23.408;2023-04-03T06:04:44;94399.06;;;8.01;66.04
19761;BME280;10039;42.632;23.408;2023-04-03T06:07:17;94404.47;;;8.17;66.08
19761;BME280;10039;42.632;23.408;2023-04-03T06:09:45;94402.63;;;8.33;65.49
19761;BME280;10039;42.632;23.408;2023-04-03T06:12:11;94379.28;;;8.25;65.29
19761;BME280;10039;42.632;23.408;2023-04-03T06:14:36;94386.28;;;8.35;65.16
19761;BME280;10039;42.632;23.408;2023-04-03T06:17:03;94403.25;;;8.41;65.07
19761;BME280;10039;42.632;23.408;2023-04-03T06:19:32;94343.63;;;8.22;65.25
19761;BME280;10039;42.632;23.408;2023-04-03T06:21:58;94368.53;;;8.48;64.85
19761;BME280;10039;42.632;23.408;2023-04-03T06:24:24;94398.38;;;8.75;65.09
19761;BME280;10039;42.632;23.408;2023-04-03T06:26:51;94378.06;;;8.65;66.31
19761;BME280;10039;42.632;23.408;2023-04-03T06:29:20;94348.72;;;8.33;66.72
19761;BME280;10039;42.632;23.408;2023-04-03T06:31:46;94364.75;;;8.29;67.25
19761;BME280;10039;42.632;23.408;2023-04-03T06:34:21;94356.63;;;8.17;67.16
19761;BME280;10039;42.632;23.408;2023-04-03T06:36:48;94394.78;;;8.46;67.09
19761;BME280;10039;42.632;23.408;2023-04-03T06:39:20;94390.72;;;8.22;67.78
19761;BME280;10039;42.632;23.408;2023-04-03T06:41:50;94401.09;;;8.36;68.26
19761;BME280;10039;42.632;23.408;2023-04-03T06:44:16;94403.44;;;8.30;68.14
19761;BME280;10039;42.632;23.408;2023-04-03T06:46:42;94413.31;;;8.69;67.47
19761;BME280;10039;42.632;23.408;2023-04-03T06:49:09;94403.53;;;8.82;67.12
19761;BME280;10039;42.632;23.408;2023-04-03T06:51:36;94381.09;;;8.83;66.55
19761;BME280;10039;42.632;23.408;2023-04-03T06:54:03;94386.16;;;8.93;66.07
19761;BME280;10039;42.632;23.408;2023-04-03T06:56:32;94411.41;;;9.20;65.56
19761;BME280;10039;42.632;23.408;2023-04-03T06:58:59;94379.97;;;8.99;64.95
19761;BME280;10039;42.632;23.408;2023-04-03T07:01:27;94414.59;;;9.31;65.09
19761;BME280;10039;42.632;23.408;2023-04-03T07:03:53;94382.13;;;9.20;65.38
19761;BME280;10039;42.632;23.408;2023-04-03T07:06:19;94410.09;;;9.60;64.87
19761;BME280;10039;42.632;23.408;2023-04-03T07:08:45;94410.59;;;9.55;64.00
19761;BME280;10039;42.632;23.408;2023-04-03T07:11:12;94386.13;;;9.60;64.50
19761;BME280;10039;42.632;23.408;2023-04-03T07:13:39;94381.59;;;9.73;63.81
19761;BME280;10039;42.632;23.408;2023-04-03T07:16:05;94398.63;;;10.07;63.01
19761;BME280;10039;42.632;23.408;2023-04-03T07:18:35;94372.03;;;10.04;62.58
19761;BME280;10039;42.632;23.408;2023-04-03T07:21:01;94388.22;;;10.25;62.72
19761;BME280;10039;42.632;23.408;2023-04-03T07:23:27;94359.84;;;10.19;62.61
19761;BME280;10039;42.632;23.408;2023-04-03T07:25:53;94388.66;;;10.65;62.01
19761;BME280;10039;42.632;23.408;2023-04-03T07:28:20;94354.88;;;10.46;61.09
19761;BME280;10039;42.632;23.408;2023-04-03T07:31:10;94381.03;;;10.51;61.17
19761;BME280;10039;42.632;23.408;2023-04-03T07:33:39;94388.44;;;10.72;61.00
19761;BME280;10039;42.632;23.408;2023-04-03T07:36:06;94374.91;;;10.91;61.21
19761;BME280;10039;42.632;23.408;2023-04-03T07:38:36;94375.97;;;10.94;60.84
19761;BME280;10039;42.632;23.408;2023-04-03T07:41:02;94355.03;;;10.92;59.95
19761;BME280;10039;42.632;23.408;2023-04-03T07:43:29;94370.41;;;11.25;60.73
19761;BME280;10039;42.632;23.408;2023-04-03T07:45:54;94370.41;;;11.25;59.25
19761;BME280;10039;42.632;23.408;2023-04-03T07:48:21;94365.09;;;11.13;60.26
19761;BME280;10039;42.632;23.408;2023-04-03T07:50:48;94371.34;;;11.31;59.25
19761;BME280;10039;42.632;23.408;2023-04-03T07:53:14;94353.94;;;11.27;59.74
19761;BME280;10039;42.632;23.408;2023-04-03T07:55:41;94371.78;;;11.42;59.44
19761;BME280;10039;42.632;23.408;2023-04-03T07:58:16;94358.31;;;11.46;59.70
19761;BME280;10039;42.632;23.408;2023-04-03T08:00:43;94363.34;;;11.31;60.67
19761;BME280;10039;42.632;23.408;2023-04-03T08:03:10;94342.13;;;10.78;61.37
19761;BME280;10039;42.632;23.408;2023-04-03T08:05:41;94359.44;;;10.99;62.33
19761;BME280;10039;42.632;23.408;2023-04-03T08:08:08;94339.88;;;11.02;61.65
19761;BME280;10039;42.632;23.408;2023-04-03T08:10:34;94356.63;;;11.14;60.91
19761;BME280;10039;42.632;23.408;2023-04-03T08:13:00;94376.16;;;11.36;61.63
19761;BME280;10039;42.632;23.408;2023-04-03T08:15:26;94360.56;;;11.35;61.01
19761;BME280;10039;42.632;23.408;2023-04-03T08:17:52;94359.28;;;11.39;61.25
19761;BME280;10039;42.632;23.408;2023-04-03T08:20:20;94352.75;;;11.40;61.26
19761;BME280;10039;42.632;23.408;2023-04-03T08:22:46;94360.97;;;11.33;60.23
19761;BME280;10039;42.632;23.408;2023-04-03T08:25:12;94319.34;;;11.23;60.67
19761;BME280;10039;42.632;23.408;2023-04-03T08:27:38;94355.88;;;11.39;60.52
19761;BME280;10039;42.632;23.408;2023-04-03T08:30:04;94326.06;;;11.28;60.71
19761;BME280;10039;42.632;23.408;2023-04-03T08:32:30;94358.94;;;11.62;60.65
19761;BME280;10039;42.632;23.408;2023-04-03T08:34:55;94302.72;;;11.53;60.00
19761;BME280;10039;42.632;23.408;2023-04-03T08:37:21;94351.78;;;11.93;59.80
19761;BME280;10039;42.632;23.408;2023-04-03T08:39:47;94350.31;;;11.92;59.15
19761;BME280;10039;42.632;23.408;2023-04-03T08:45:27;94324.50;;;11.64;60.16
19761;BME280;10039;42.632;23.408;2023-04-03T08:48:06;94339.56;;;11.71;59.89
19761;BME280;10039;42.632;23.408;2023-04-03T08:50:40;94337.47;;;11.87;59.68
19761;BME280;10039;42.632;23.408;2023-04-03T08:53:14;94329.91;;;12.07;59.33
19761;BME280;10039;42.632;23.408;2023-04-03T08:55:44;94325.91;;;12.33;58.60
19761;BME280;10039;42.632;23.408;2023-04-03T08:58:20;94324.94;;;12.39;59.29
19761;BME280;10039;42.632;23.408;2023-04-03T09:03:18;94300.22;;;12.35;57.79
19761;BME280;10039;42.632;23.408;2023-04-03T09:05:57;94298.59;;;12.68;57.35
19761;BME280;10039;42.632;23.408;2023-04-03T09:08:29;94314.03;;;12.95;56.56
19761;BME280;10039;42.632;23.408;2023-04-03T09:11:25;94307.53;;;13.05;56.77
19761;BME280;10039;42.632;23.408;2023-04-03T09:17:16;94287.25;;;12.95;56.34
19761;BME280;10039;42.632;23.408;2023-04-03T09:22:25;94289.75;;;13.38;55.76
19761;BME280;10039;42.632;23.408;2023-04-03T09:27:26;94257.84;;;13.13;54.83
19761;BME280;10039;42.632;23.408;2023-04-03T09:29:54;94284.41;;;13.46;54.51
19761;BME280;10039;42.632;23.408;2023-04-03T09:32:33;94290.06;;;13.48;53.37
19761;BME280;10039;42.632;23.408;2023-04-03T09:35:03;94262.66;;;13.36;54.20
19761;BME280;10039;42.632;23.408;2023-04-03T09:37:44;94288.00;;;13.70;53.80
19761;BME280;10039;42.632;23.408;2023-04-03T09:42:56;94227.50;;;13.60;53.86
19761;BME280;10039;42.632;23.408;2023-04-03T09:45:29;94264.13;;;13.99;52.38
19761;BME280;10039;42.632;23.408;2023-04-03T09:48:16;94268.44;;;14.06;52.61
19761;BME280;10039;42.632;23.408;2023-04-03T09:53:42;94260.56;;;14.11;53.19
19761;BME280;10039;42.632;23.408;2023-04-03T09:58:48;94257.41;;;14.13;51.89
19761;BME280;10039;42.632;23.408;2023-04-03T10:06:32;94258.94;;;13.96;51.23
19761;BME280;10039;42.632;23.408;2023-04-03T10:09:05;94254.47;;;13.93;51.64
19761;BME280;10039;42.632;23.408;2023-04-03T10:11:31;94235.84;;;13.80;50.80
19761;BME280;10039;42.632;23.408;2023-04-03T10:14:02;94238.81;;;13.91;50.44
19761;BME280;10039;42.632;23.408;2023-04-03T10:16:41;94256.38;;;14.01;49.82
19761;BME280;10039;42.632;23.408;2023-04-03T10:19:28;94255.06;;;14.15;51.25
19761;BME280;10039;42.632;23.408;2023-04-03T10:28:00;94252.19;;;14.27;50.41
19761;BME280;10039;42.632;23.408;2023-04-03T10:35:48;94237.91;;;14.03;50.59
19761;BME280;10039;42.632;23.408;2023-04-03T10:38:29;94225.97;;;13.95;51.16
19761;BME280;10039;42.632;23.408;2023-04-03T10:41:31;94234.34;;;14.15;51.35
19761;BME280;10039;42.632;23.408;2023-04-03T10:47:21;94220.78;;;14.01;51.06
19761;BME280;10039;42.632;23.408;2023-04-03T10:52:46;94211.72;;;13.80;52.38
19761;BME280;10039;42.632;23.408;2023-04-03T10:57:39;94218.34;;;14.12;52.98
19761;BME280;10039;42.632;23.408;2023-04-03T11:00:13;94195.28;;;13.87;53.51
19761;BME280;10039;42.632;23.408;2023-04-03T11:02:51;94224.66;;;13.91;53.83
19761;BME280;10039;42.632;23.408;2023-04-03T11:05:34;94231.66;;;13.88;54.23
19761;BME280;10039;42.632;23.408;2023-04-03T11:08:24;94215.00;;;13.75;54.93
19761;BME280;10039;42.632;23.408;2023-04-03T11:10:57;94201.88;;;13.59;55.81
19761;BME280;10039;42.632;23.408;2023-04-03T11:13:50;94215.44;;;13.56;57.35
19761;BME280;10039;42.632;23.408;2023-04-03T11:16:23;94197.72;;;13.23;58.92
19761;BME280;10039;42.632;23.408;2023-04-03T11:18:56;94225.56;;;13.43;59.70
19761;BME280;10039;42.632;23.408;2023-04-03T11:21:33;94190.00;;;13.16;60.37
19761;BME280;10039;42.632;23.408;2023-04-03T11:24:02;94216.47;;;13.32;61.00
19761;BME280;10039;42.632;23.408;2023-04-03T11:26:38;94207.69;;;13.04;61.83
19761;BME280;10039;42.632;23.408;2023-04-03T11:29:15;94186.47;;;12.79;62.82
19761;BME280;10039;42.632;23.408;2023-04-03T11:34:41;94213.50;;;12.63;64.97
19761;BME280;10039;42.632;23.408;2023-04-03T11:37:25;94212.44;;;12.52;65.92
19761;BME280;10039;42.632;23.408;2023-04-03T11:40:08;94190.41;;;12.18;68.01
19761;BME280;10039;42.632;23.408;2023-04-03T11:43:07;94183.44;;;11.90;69.53
19761;BME280;10039;42.632;23.408;2023-04-03T11:45:58;94235.50;;;12.28;69.46
19761;BME280;10039;42.632;23.408;2023-04-03T11:51:01;94210.72;;;12.06;70.45
19761;BME280;10039;42.632;23.408;2023-04-03T11:53:38;94208.38;;;12.08;69.60
19761;BME280;10039;42.632;23.408;2023-04-03T12:04:14;94227.00;;;11.90;69.83
19761;BME280;10039;42.632;23.408;2023-04-03T12:12:28;94227.03;;;11.99;70.17
19761;BME280;10039;42.632;23.408;2023-04-03T12:14:54;94230.00;;;12.01;70.70
19761;BME280;10039;42.632;23.408;2023-04-03T12:17:27;94233.06;;;12.12;69.61
19761;BME280;10039;42.632;23.408;2023-04-03T12:19:53;94248.28;;;12.24;70.31
19761;BME280;10039;42.632;23.408;2023-04-03T12:22:20;94236.91;;;12.11;71.21
19761;BME280;10039;42.632;23.408;2023-04-03T12:24:55;94208.78;;;11.76;73.25
19761;BME280;10039;42.632;23.408;2023-04-03T12:27:22;94237.88;;;11.74;74.21
19761;BME280;10039;42.632;23.408;2023-04-03T12:35:24;94178.56;;;11.67;73.24
19761;BME280;10039;42.632;23.408;2023-04-03T12:44:00;94205.28;;;11.88;74.05
19761;BME280;10039;42.632;23.408;2023-04-03T12:46:43;94157.72;;;11.40;75.92
19761;BME280;10039;42.632;23.408;2023-04-03T12:51:46;94185.56;;;11.52;74.70
19761;BME280;10039;42.632;23.408;2023-04-03T12:56:38;94198.00;;;11.67;74.32
19761;BME280;10039;42.632;23.408;2023-04-03T12:59:21;94197.97;;;11.58;75.32
19761;BME280;10039;42.632;23.408;2023-04-03T13:01:59;94149.88;;;11.03;75.61
19761;BME280;10039;42.632;23.408;2023-04-03T13:04:27;94165.63;;;11.22;76.93
19761;BME280;10039;42.632;23.408;2023-04-03T13:06:53;94189.13;;;11.27;76.45
19761;BME280;10039;42.632;23.408;2023-04-03T13:09:27;94204.19;;;11.55;75.61
19761;BME280;10039;42.632;23.408;2023-04-03T13:12:01;94205.25;;;11.45;77.29
19761;BME280;10039;42.632;23.408;2023-04-03T13:14:29;94182.63;;;11.37;76.30
19761;BME280;10039;42.632;23.408;2023-04-03T13:16:58;94193.88;;;11.32;77.35
19761;BME280;10039;42.632;23.408;2023-04-03T13:19:26;94195.81;;;11.32;77.62
19761;BME280;10039;42.632;23.408;2023-04-03T13:22:01;94182.81;;;11.21;76.92
19761;BME280;10039;42.632;23.408;2023-04-03T13:24:29;94154.81;;;10.92;76.96
19761;BME280;10039;42.632;23.408;2023-04-03T13:26:55;94159.50;;;11.01;76.37
19761;BME280;10039;42.632;23.408;2023-04-03T13:29:28;94135.28;;;10.95;76.32
19761;BME280;10039;42.632;23.408;2023-04-03T13:31:55;94179.91;;;11.28;75.92
19761;BME280;10039;42.632;23.408;2023-04-03T13:34:22;94182.03;;;11.00;76.79
19761;BME280;10039;42.632;23.408;2023-04-03T13:36:56;94186.41;;;11.06;77.33
19761;BME280;10039;42.632;23.408;2023-04-03T13:39:29;94180.31;;;11.06;77.51
19761;BME280;10039;42.632;23.408;2023-04-03T13:41:58;94141.72;;;10.85;78.21
19761;BME280;10039;42.632;23.408;2023-04-03T13:44:31;94182.66;;;11.04;77.98
19761;BME280;10039;42.632;23.408;2023-04-03T13:49:40;94133.00;;;10.72;77.38
19761;BME280;10039;42.632;23.408;2023-04-03T13:52:33;94170.94;;;11.01;77.23
19761;BME280;10039;42.632;23.408;2023-04-03T14:01:00;94169.16;;;10.86;79.74
19761;BME280;10039;42.632;23.408;2023-04-03T14:03:31;94145.59;;;10.72;78.96
19761;BME280;10039;42.632;23.408;2023-04-03T14:05:58;94165.72;;;10.85;79.35
19761;BME280;10039;42.632;23.408;2023-04-03T14:08:24;94132.88;;;10.76;78.17
19761;BME280;10039;42.632;23.408;2023-04-03T14:10:50;94136.03;;;10.96;77.07
19761;BME280;10039;42.632;23.408;2023-04-03T14:13:19;94135.78;;;11.03;76.43
19761;BME280;10039;42.632;23.408;2023-04-03T14:15:46;94110.75;;;10.88;76.63
19761;BME280;10039;42.632;23.408;2023-04-03T14:18:15;94129.88;;;11.08;77.03
19761;BME280;10039;42.632;23.408;2023-04-03T14:20:42;94151.41;;;11.25;76.55
19761;BME280;10039;42.632;23.408;2023-04-03T14:23:08;94158.56;;;11.28;76.64
19761;BME280;10039;42.632;23.408;2023-04-03T14:25:34;94133.50;;;11.13;76.98
19761;BME280;10039;42.632;23.408;2023-04-03T14:28:00;94135.63;;;11.18;76.59
19761;BME280;10039;42.632;23.408;2023-04-03T14:30:31;94157.66;;;11.31;76.16
19761;BME280;10039;42.632;23.408;2023-04-03T14:33:00;94122.00;;;11.04;76.70
19761;BME280;10039;42.632;23.408;2023-04-03T14:35:27;94155.19;;;11.15;77.32
19761;BME280;10039;42.632;23.408;2023-04-03T14:37:53;94144.63;;;11.12;76.72
19761;BME280;10039;42.632;23.408;2023-04-03T14:40:23;94129.56;;;11.06;77.69
19761;BME280;10039;42.632;23.408;2023-04-03T14:42:51;94127.44;;;11.01;77.41
19761;BME280;10039;42.632;23.408;2023-04-03T14:45:20;94120.38;;;11.07;77.11